Aérodrome :
LOGIN :

S'inscrire | Disclaimer

   EN    FR    IT 

 










Légende :    VFR   VFR Marginal   IFR   IFR Intensif   IFR Très Intensif
Visi : 
Plafond : 
>= 8 km
>= 3000ft
5 à 8 km
1000 à 3000 ft
1500m à 5 km
500 à 1000 ft
800 à 1500m
200 à 500 ft
< 800m
< 200 ft
Symboles :   Orages  Brouillard  Fortes neiges  Fortes précipitations  Vent > 20 kt
SIGMETs :   Divers  Orages  Givrage  Turbulence  Onde Orograph.  Cendres Volcan.







- Altitude de l'aérodrome : 170 ft
- Code IATA : BGO


ENBR - Bergen , Flesland

DERNIER METAR :
  • 222050Z 20022KT 9999 7000S -RADZ SCT004 BKN007 07/06 Q1011 RMK WIND 1200FT 21026G42KT

METARs EXPIRÉS :
  • 222020Z 19024G34KT 6000 RADZ SCT004 BKN007 07/06 Q1010 BECMG -RADZ BKN012 RMK WIND 1200FT 20030KT
  • 221950Z 19022KT 6000 RADZ SCT004 BKN007 07/06 Q1011 TEMPO 2000 -DZ BR BKN004 RMK WIND 1200FT 19029G42KT
  • 221920Z 18022KT 6000 RADZ SCT004 BKN007 07/06 Q1011 TEMPO 2000 -DZ BR BKN004 RMK WIND 1200FT 19033G44KT
  • 221850Z 19022KT 5000 RADZ BR SCT004 BKN007 07/06 Q1011 TEMPO 1500 DZ BR BKN003 RMK WIND 1200FT 19033G45KT
  • 221820Z 18024KT 4500 RADZ BR SCT004 BKN007 07/06 Q1011 TEMPO 1500 DZ BR BKN003 RMK WIND 1200FT 18029G41KT
  • 221750Z 18022G32KT 2000 RADZ BR FEW003 SCT005 BKN007 07/06 Q1012 TEMPO 1200 DZ BR BKN003 RMK WIND 1200FT 17030G45KT

TAF ENBR
Valide du 22 à 18h jusqu'au 23 à 18h UTC


2218/2318 18025KT 4000 -RADZ BR SCT004 BKN008
TEMPO 2218/2221 1500 DZRA BR OVC003
BECMG 2219/2222 23015KT 9999 NSW FEW020 BKN040
TEMPO 2300/2318 25020G30KT SHRA BKN014CB
PROB30
TEMPO 2309/2313 4000 TSGS
BECMG 2314/2317 29015KT
Pas de NOTAMs connus pour ce terrain.
1 SIGMET publié pour la FIR Norway (ENOR) :
 
Turbulence forte
ENBD SIGMET C04 VALID 222000/230000 ENVV
ENOR NORWAY FIR SEV TURB FCST WI N6200 E00500 - N6230 E00510 - N6350 E00830 - N6430 E01130 - N6320 E01020 - N6200 E00630 - N6200 E00500 SFC/FL080 STNR NC=



MET'MAP, la Météo Aéronautique d'un coup d'oeil ! - Copyright ORBIFLY Décembre 2007 - Disclaimer

ORBIFLY MET'MAP TEAM :

Programmation & Développement : Alexandra Zaïnal
Conception & Développement : Baudouin d'Aumeries
Co-Programmation & Développement : Marc-Olivier Méhu
Soutien technique & logistique : Manuel Goepfert

Contact : metmap@orbifly.com




SOURCES & CREDITS :

   NOAA